Time;durP1;ratioP1;P1;durP2;ratioP2;P2;SDS_P1;SDS_P2;PMS_P1;PMS_P2;Temp;Humidity;BMP_temperature;BMP_pressure;BME280_temperature;BME280_humidity;BME280_pressure;Samples;Min_cycle;Max_cycle;Signal;HPM_P1;HPM_P2
2022/09/25 00:01:07;;;;;;;;;;;17.70;61.70;;;;;;5096541;28;19920;-67
2022/09/25 00:03:33;;;;;;;;;;;17.70;61.70;;;;;;5096349;28;20236;-67
2022/09/25 00:06:00;;;;;;;;;;;17.70;61.70;;;;;;5096504;28;20250;-67
2022/09/25 00:08:26;;;;;;;;;;;17.60;61.60;;;;;;5115050;28;19973;-67
2022/09/25 00:10:51;;;;;;;;;;;17.60;61.70;;;;;;5114836;28;20264;-69
2022/09/25 00:13:17;;;;;;;;;;;17.60;61.60;;;;;;5130607;27;19920;-68
2022/09/25 00:15:47;;;;;;;;;;;17.60;61.70;;;;;;5114512;28;19962;-67
2022/09/25 00:18:13;;;;;;;;;;;17.60;61.70;;;;;;5130483;27;19924;-67
2022/09/25 00:20:39;;;;;;;;;;;17.60;61.60;;;;;;5096531;28;19942;-67
2022/09/25 00:23:04;;;;;;;;;;;17.60;61.60;;;;;;5130546;27;20281;-67
2022/09/25 00:25:30;;;;;;;;;;;17.60;61.70;;;;;;5096119;28;19951;-67
2022/09/25 00:27:55;;;;;;;;;;;17.60;61.70;;;;;;5114524;28;19946;-68
2022/09/25 00:30:21;;;;;;;;;;;17.60;61.60;;;;;;5114266;28;19964;-67
2022/09/25 00:32:47;;;;;;;;;;;17.50;61.60;;;;;;5096141;28;19927;-67
2022/09/25 00:35:12;;;;;;;;;;;17.60;61.60;;;;;;5114494;28;19920;-67
2022/09/25 00:37:38;;;;;;;;;;;17.50;61.60;;;;;;5114160;28;19982;-67
2022/09/25 00:40:04;;;;;;;;;;;17.60;61.60;;;;;;5096169;28;19927;-67
2022/09/25 00:42:30;;;;;;;;;;;17.60;61.70;;;;;;5114149;28;19927;-68
2022/09/25 00:44:57;;;;;;;;;;;17.50;62.40;;;;;;5095683;28;19962;-67
2022/09/25 00:47:25;;;;;;;;;;;17.50;61.60;;;;;;5095679;28;20543;-67
2022/09/25 00:49:52;;;;;;;;;;;17.50;61.60;;;;;;5095495;28;19927;-67
2022/09/25 00:52:17;;;;;;;;;;;17.50;61.60;;;;;;5095888;28;19927;-68
2022/09/25 00:54:45;;;;;;;;;;;17.50;61.60;;;;;;5095889;28;19920;-67
2022/09/25 00:57:12;;;;;;;;;;;17.50;61.60;;;;;;5095452;28;19926;-67
2022/09/25 00:59:40;;;;;;;;;;;17.50;61.50;;;;;;5095772;28;20363;-68
2022/09/25 01:02:07;;;;;;;;;;;17.50;61.60;;;;;;5095293;28;19969;-67
2022/09/25 01:04:34;;;;;;;;;;;17.50;61.60;;;;;;5095278;28;19927;-67
2022/09/25 01:06:59;;;;;;;;;;;17.50;61.60;;;;;;5113650;28;19919;-67
2022/09/25 01:09:26;;;;;;;;;;;17.50;61.60;;;;;;5095314;28;20417;-67
2022/09/25 01:11:52;;;;;;;;;;;17.40;61.50;;;;;;5113582;28;20181;-68
2022/09/25 01:14:17;;;;;;;;;;;17.40;61.50;;;;;;5095540;28;19926;-67
2022/09/25 01:22:18;;;;;;;;;;;17.40;61.50;;;;;;5110265;27;19912;-65
2022/09/25 01:27:47;;;;;;;;;;;17.40;61.50;;;;;;5089849;28;19913;-65
2022/09/25 01:30:13;;;;;;;;;;;17.40;61.50;;;;;;5105123;28;20013;-65
2022/09/25 01:32:57;;;;;;;;;;;17.40;61.50;;;;;;5088788;28;19924;-65
2022/09/25 01:35:42;;;;;;;;;;;17.40;61.50;;;;;;5088450;28;20001;-65
2022/09/25 01:38:15;;;;;;;;;;;17.40;61.40;;;;;;5105304;28;20334;-65
2022/09/25 01:41:00;;;;;;;;;;;17.40;61.40;;;;;;5088813;28;19921;-65
2022/09/25 01:43:33;;;;;;;;;;;17.40;61.50;;;;;;5089479;28;20395;-65
2022/09/25 01:46:01;;;;;;;;;;;17.40;61.40;;;;;;5089470;28;19928;-65
2022/09/25 01:48:29;;;;;;;;;;;17.40;61.40;;;;;;5088154;28;19962;-65
2022/09/25 01:50:59;;;;;;;;;;;17.40;61.40;;;;;;5089616;28;19920;-65
2022/09/25 01:53:27;;;;;;;;;;;17.40;61.40;;;;;;5089435;28;19920;-65
2022/09/25 01:55:55;;;;;;;;;;;17.40;61.40;;;;;;5089461;28;19921;-65
2022/09/25 01:58:24;;;;;;;;;;;17.40;61.40;;;;;;5087959;28;19920;-65
2022/09/25 02:00:54;;;;;;;;;;;17.40;61.40;;;;;;5089159;28;19920;-65
2022/09/25 02:03:24;;;;;;;;;;;17.40;61.40;;;;;;5105104;28;19952;-66
2022/09/25 02:05:53;;;;;;;;;;;17.40;61.40;;;;;;5104876;28;19925;-65
2022/09/25 02:08:22;;;;;;;;;;;17.30;61.30;;;;;;5089169;28;19924;-65
2022/09/25 02:10:51;;;;;;;;;;;17.30;61.30;;;;;;5089121;28;19920;-66
2022/09/25 02:13:18;;;;;;;;;;;17.30;61.40;;;;;;5087717;28;19928;-66
2022/09/25 02:16:01;;;;;;;;;;;17.30;61.30;;;;;;5087653;28;19927;-65
2022/09/25 02:21:23;;;;;;;;;;;17.30;61.30;;;;;;5087731;28;19977;-65
2022/09/25 02:24:03;;;;;;;;;;;17.30;61.30;;;;;;5086865;28;19931;-65
2022/09/25 02:26:30;;;;;;;;;;;17.30;61.30;;;;;;5087163;28;20329;-65
2022/09/25 02:28:55;;;;;;;;;;;17.30;61.30;;;;;;5089041;28;19924;-66
2022/09/25 02:31:24;;;;;;;;;;;17.30;61.30;;;;;;5087625;28;19921;-65
2022/09/25 02:33:49;;;;;;;;;;;17.30;61.30;;;;;;5087687;28;19931;-65
2022/09/25 02:36:18;;;;;;;;;;;17.30;61.30;;;;;;5088529;28;19924;-65
2022/09/25 02:38:43;;;;;;;;;;;17.30;61.30;;;;;;5074313;28;19974;-66
2022/09/25 02:41:20;;;;;;;;;;;17.30;61.30;;;;;;5073676;28;20384;-65
2022/09/25 02:44:05;;;;;;;;;;;17.30;61.20;;;;;;5075160;28;19943;-65
2022/09/25 02:46:43;;;;;;;;;;;17.30;61.30;;;;;;5073481;28;19936;-65
2022/09/25 02:51:53;;;;;;;;;;;17.20;61.20;;;;;;5127858;27;1856468;-66
2022/09/25 02:54:22;;;;;;;;;;;17.30;61.20;;;;;;5193278;27;19918;-65
2022/09/25 02:59:33;;;;;;;;;;;17.30;61.20;;;;;;5089898;28;20288;-66
2022/09/25 03:01:59;;;;;;;;;;;17.20;61.10;;;;;;5088542;28;19970;-65
2022/09/25 03:04:26;;;;;;;;;;;17.20;61.10;;;;;;5088200;28;19924;-65
2022/09/25 03:06:51;;;;;;;;;;;17.20;61.10;;;;;;5088569;28;19959;-65
2022/09/25 03:09:19;;;;;;;;;;;17.20;61.20;;;;;;5088783;28;20349;-66
2022/09/25 03:11:45;;;;;;;;;;;17.20;61.20;;;;;;5088414;28;19920;-65
2022/09/25 03:14:11;;;;;;;;;;;17.20;61.10;;;;;;5088583;28;19928;-65
2022/09/25 03:19:18;;;;;;;;;;;17.20;61.10;;;;;;5089795;28;19919;-65
2022/09/25 03:21:44;;;;;;;;;;;17.20;61.10;;;;;;5088609;28;19920;-65
2022/09/25 03:24:10;;;;;;;;;;;17.20;61.10;;;;;;5087755;28;19958;-66
2022/09/25 03:26:35;;;;;;;;;;;17.20;61.10;;;;;;5088527;28;19921;-65
2022/09/25 03:29:01;;;;;;;;;;;17.20;61.10;;;;;;5088703;28;20348;-65
2022/09/25 03:31:27;;;;;;;;;;;17.20;61.10;;;;;;5088622;28;20384;-65
2022/09/25 03:33:53;;;;;;;;;;;17.10;61.00;;;;;;5088411;28;19924;-65
2022/09/25 03:36:20;;;;;;;;;;;17.20;61.10;;;;;;5088560;28;19929;-65
2022/09/25 03:38:48;;;;;;;;;;;17.20;61.10;;;;;;5088263;28;20064;-66
2022/09/25 03:41:15;;;;;;;;;;;17.20;61.10;;;;;;5089601;28;20273;-66
2022/09/25 03:43:42;;;;;;;;;;;17.20;61.00;;;;;;5089381;28;20047;-65
2022/09/25 03:46:09;;;;;;;;;;;17.10;61.00;;;;;;5088551;28;20509;-65
2022/09/25 03:48:35;;;;;;;;;;;17.10;61.00;;;;;;5088031;28;20015;-66
2022/09/25 03:51:01;;;;;;;;;;;17.10;61.00;;;;;;5088360;28;20058;-65
2022/09/25 03:53:28;;;;;;;;;;;17.10;60.90;;;;;;5087943;28;19964;-65
2022/09/25 03:55:54;;;;;;;;;;;17.10;61.00;;;;;;5089314;28;20425;-65
2022/09/25 03:58:20;;;;;;;;;;;17.10;61.00;;;;;;5087877;28;19981;-65
2022/09/25 04:00:46;;;;;;;;;;;17.10;61.00;;;;;;5089322;28;19927;-66
2022/09/25 04:03:12;;;;;;;;;;;17.10;61.00;;;;;;5087769;28;19920;-65
2022/09/25 04:05:38;;;;;;;;;;;17.00;60.90;;;;;;5089228;28;19924;-66
2022/09/25 04:08:04;;;;;;;;;;;17.10;60.90;;;;;;5088023;28;19920;-66
2022/09/25 04:10:30;;;;;;;;;;;17.10;61.00;;;;;;5087759;28;20295;-66
2022/09/25 04:12:56;;;;;;;;;;;17.10;60.90;;;;;;5087860;28;19924;-65
2022/09/25 04:15:22;;;;;;;;;;;17.10;61.00;;;;;;5089150;28;20330;-65
2022/09/25 04:17:49;;;;;;;;;;;17.10;60.90;;;;;;5096796;28;19924;-65
2022/09/25 04:20:14;;;;;;;;;;;17.00;60.90;;;;;;5091107;28;19924;-66
2022/09/25 04:22:40;;;;;;;;;;;17.10;60.90;;;;;;5090836;28;19926;-66
2022/09/25 04:25:06;;;;;;;;;;;17.00;60.90;;;;;;5108960;28;19924;-67
2022/09/25 04:27:32;;;;;;;;;;;17.00;60.90;;;;;;5091026;28;19920;-67
2022/09/25 04:29:57;;;;;;;;;;;17.00;60.80;;;;;;5098915;28;19974;-68
2022/09/25 04:35:08;;;;;;;;;;;17.00;60.80;;;;;;5076862;28;20281;-67
2022/09/25 04:37:34;;;;;;;;;;;17.00;60.80;;;;;;5077093;28;19939;-67
2022/09/25 04:40:00;;;;;;;;;;;16.90;60.80;;;;;;5095099;28;20401;-67
2022/09/25 04:42:25;;;;;;;;;;;17.00;60.80;;;;;;5094998;28;19920;-67
2022/09/25 04:44:52;;;;;;;;;;;17.00;60.80;;;;;;5076925;28;20007;-67
2022/09/25 04:47:18;;;;;;;;;;;17.00;60.80;;;;;;5077182;28;19927;-67
2022/09/25 04:49:44;;;;;;;;;;;17.00;60.80;;;;;;5094883;28;20028;-68
2022/09/25 04:52:11;;;;;;;;;;;17.00;60.80;;;;;;5076815;28;19963;-68
2022/09/25 04:54:36;;;;;;;;;;;16.90;60.70;;;;;;5094927;28;20284;-68
2022/09/25 04:57:02;;;;;;;;;;;17.00;60.80;;;;;;5094693;28;19920;-67
2022/09/25 04:59:28;;;;;;;;;;;16.90;60.70;;;;;;5076924;28;19920;-67
2022/09/25 05:01:53;;;;;;;;;;;17.00;60.80;;;;;;5076498;28;19956;-67
2022/09/25 05:04:19;;;;;;;;;;;17.00;60.80;;;;;;5076844;28;19924;-67
2022/09/25 05:06:44;;;;;;;;;;;17.00;60.80;;;;;;5094666;28;19920;-68
2022/09/25 05:09:10;;;;;;;;;;;16.90;60.60;;;;;;5076765;28;19927;-67
2022/09/25 05:11:35;;;;;;;;;;;16.90;60.70;;;;;;5076367;28;19920;-68
2022/09/25 05:14:01;;;;;;;;;;;16.90;60.60;;;;;;5094432;28;19920;-67
2022/09/25 05:16:29;;;;;;;;;;;16.90;60.60;;;;;;5094594;28;19963;-67
2022/09/25 05:18:55;;;;;;;;;;;17.00;60.60;;;;;;5076044;28;19969;-67
2022/09/25 05:21:21;;;;;;;;;;;16.90;60.60;;;;;;5076264;28;19920;-68
2022/09/25 05:23:46;;;;;;;;;;;16.90;60.60;;;;;;5076723;28;20010;-68
2022/09/25 05:26:12;;;;;;;;;;;16.90;60.60;;;;;;5094133;28;20383;-67
2022/09/25 05:28:37;;;;;;;;;;;16.90;60.60;;;;;;5076391;28;19920;-67
2022/09/25 05:31:03;;;;;;;;;;;16.90;60.60;;;;;;5094224;28;19947;-67
2022/09/25 05:33:31;;;;;;;;;;;16.90;60.60;;;;;;5093155;28;19923;-67
2022/09/25 05:36:04;;;;;;;;;;;16.90;60.60;;;;;;5093021;28;19969;-67
2022/09/25 05:38:31;;;;;;;;;;;16.90;60.60;;;;;;5075772;28;19924;-68
2022/09/25 05:41:03;;;;;;;;;;;16.90;60.60;;;;;;5091938;28;19980;-67
2022/09/25 05:43:28;;;;;;;;;;;16.80;60.50;;;;;;5093777;28;19930;-68
2022/09/25 05:45:54;;;;;;;;;;;16.90;60.60;;;;;;5075568;28;20006;-67
2022/09/25 05:48:20;;;;;;;;;;;16.80;60.50;;;;;;5075667;28;19920;-67
2022/09/25 05:50:53;;;;;;;;;;;16.80;60.50;;;;;;5092749;28;19924;-67
2022/09/25 05:53:18;;;;;;;;;;;16.80;60.50;;;;;;5092733;28;19920;-67
2022/09/25 05:55:52;;;;;;;;;;;16.80;60.50;;;;;;5093662;28;20019;-68
2022/09/25 05:58:17;;;;;;;;;;;16.80;60.50;;;;;;5093665;28;20303;-68
2022/09/25 06:00:44;;;;;;;;;;;16.80;60.50;;;;;;5093565;28;19920;-67
2022/09/25 06:03:09;;;;;;;;;;;16.80;60.50;;;;;;5093503;28;19924;-68
2022/09/25 06:05:35;;;;;;;;;;;16.80;60.50;;;;;;5075659;28;19920;-68
2022/09/25 06:08:01;;;;;;;;;;;16.80;60.50;;;;;;5093425;28;19964;-67
2022/09/25 06:10:27;;;;;;;;;;;16.80;60.50;;;;;;5093380;28;20348;-68
2022/09/25 06:12:57;;;;;;;;;;;16.80;60.50;;;;;;5075078;28;19952;-68
2022/09/25 06:15:24;;;;;;;;;;;16.80;60.50;;;;;;5075099;28;19919;-68
2022/09/25 06:17:50;;;;;;;;;;;16.80;60.50;;;;;;5074763;28;19928;-67
2022/09/25 06:20:15;;;;;;;;;;;16.80;60.40;;;;;;5093255;28;19962;-68
2022/09/25 06:22:42;;;;;;;;;;;16.80;60.40;;;;;;5093053;28;19920;-68
2022/09/25 06:25:14;;;;;;;;;;;16.80;60.50;;;;;;5075258;28;19970;-68
2022/09/25 06:27:39;;;;;;;;;;;16.80;60.40;;;;;;5092963;28;19977;-68
2022/09/25 06:30:05;;;;;;;;;;;16.80;60.40;;;;;;5093094;28;20003;-67
2022/09/25 06:32:30;;;;;;;;;;;16.80;60.40;;;;;;5055023;28;19921;-68
2022/09/25 06:34:56;;;;;;;;;;;16.80;60.40;;;;;;5054825;28;20331;-67
2022/09/25 06:37:21;;;;;;;;;;;16.80;60.40;;;;;;5054821;28;19924;-67
2022/09/25 06:39:47;;;;;;;;;;;16.80;60.40;;;;;;5055001;28;19944;-68
2022/09/25 06:42:12;;;;;;;;;;;16.80;60.40;;;;;;5072494;28;20319;-68
2022/09/25 06:44:38;;;;;;;;;;;16.80;60.30;;;;;;5054907;28;20466;-68
2022/09/25 06:47:03;;;;;;;;;;;16.90;60.30;;;;;;5054842;28;20031;-68
2022/09/25 06:49:29;;;;;;;;;;;16.80;60.20;;;;;;5054516;28;19924;-67
2022/09/25 06:51:54;;;;;;;;;;;16.80;60.20;;;;;;5054583;28;19927;-68
2022/09/25 06:54:20;;;;;;;;;;;16.80;60.20;;;;;;5054359;28;19970;-67
2022/09/25 06:56:47;;;;;;;;;;;16.80;60.20;;;;;;5054444;28;19967;-68
2022/09/25 06:59:13;;;;;;;;;;;16.80;60.20;;;;;;5072257;28;19929;-67
2022/09/25 07:01:38;;;;;;;;;;;16.80;60.20;;;;;;5054752;28;19965;-67
2022/09/25 07:04:04;;;;;;;;;;;16.80;60.20;;;;;;5054373;28;20292;-68
2022/09/25 07:06:30;;;;;;;;;;;16.80;60.10;;;;;;5072344;28;19931;-67
2022/09/25 07:08:56;;;;;;;;;;;16.80;60.10;;;;;;5072266;28;19921;-67
2022/09/25 07:11:22;;;;;;;;;;;16.80;60.10;;;;;;5070891;28;20386;-68
2022/09/25 07:13:51;;;;;;;;;;;16.80;60.10;;;;;;5054130;28;19924;-67
2022/09/25 07:16:17;;;;;;;;;;;16.80;60.10;;;;;;5072401;28;19920;-67
2022/09/25 07:18:43;;;;;;;;;;;16.80;60.10;;;;;;5053917;28;19924;-68
2022/09/25 07:21:11;;;;;;;;;;;16.80;60.10;;;;;;5072518;28;20426;-68
2022/09/25 07:23:37;;;;;;;;;;;16.80;60.00;;;;;;5091514;28;19927;-67
2022/09/25 07:26:06;;;;;;;;;;;16.80;60.00;;;;;;5074187;28;20021;-68
2022/09/25 07:28:32;;;;;;;;;;;16.90;60.00;;;;;;5092346;28;19943;-67
2022/09/25 07:30:58;;;;;;;;;;;16.90;60.00;;;;;;5074389;28;20360;-68
2022/09/25 07:33:23;;;;;;;;;;;16.90;60.00;;;;;;5074161;28;19973;-67
2022/09/25 07:35:50;;;;;;;;;;;16.90;60.00;;;;;;5092240;28;19923;-68
2022/09/25 07:38:16;;;;;;;;;;;16.90;60.00;;;;;;5074153;28;19971;-67
2022/09/25 07:40:42;;;;;;;;;;;16.90;60.00;;;;;;5074364;28;19975;-67
2022/09/25 07:43:07;;;;;;;;;;;16.90;60.00;;;;;;5092128;28;20373;-68
2022/09/25 07:45:33;;;;;;;;;;;16.90;60.00;;;;;;5074291;28;20011;-67
2022/09/25 07:47:59;;;;;;;;;;;16.90;60.00;;;;;;5091172;28;19924;-67
2022/09/25 07:50:25;;;;;;;;;;;16.90;60.00;;;;;;5092083;28;20351;-67
2022/09/25 07:52:52;;;;;;;;;;;16.90;59.90;;;;;;5074049;28;19963;-67
2022/09/25 07:55:17;;;;;;;;;;;16.90;59.90;;;;;;5092114;28;19927;-67
2022/09/25 07:57:43;;;;;;;;;;;16.90;59.90;;;;;;5092003;28;19925;-68
2022/09/25 08:00:09;;;;;;;;;;;16.90;59.90;;;;;;5074156;28;20394;-67
2022/09/25 08:02:34;;;;;;;;;;;16.90;59.90;;;;;;5091986;28;19920;-68
2022/09/25 08:05:00;;;;;;;;;;;16.90;59.90;;;;;;5094068;28;19927;-67
2022/09/25 08:07:27;;;;;;;;;;;16.90;59.90;;;;;;5095874;28;19927;-68
2022/09/25 08:09:53;;;;;;;;;;;17.00;59.90;;;;;;5077527;28;19920;-67
2022/09/25 08:12:19;;;;;;;;;;;16.90;59.80;;;;;;5077651;28;19931;-68
2022/09/25 08:14:44;;;;;;;;;;;16.90;59.80;;;;;;5094658;28;20469;-68
2022/09/25 08:17:10;;;;;;;;;;;16.90;59.80;;;;;;5077089;28;19924;-67
2022/09/25 08:19:36;;;;;;;;;;;17.00;59.90;;;;;;5077460;28;19931;-68
2022/09/25 08:22:01;;;;;;;;;;;16.90;59.80;;;;;;5095572;28;19974;-68
2022/09/25 08:24:27;;;;;;;;;;;17.00;59.80;;;;;;5077253;28;19921;-67
2022/09/25 08:26:52;;;;;;;;;;;16.90;59.80;;;;;;5077161;28;19920;-67
2022/09/25 08:29:18;;;;;;;;;;;16.90;59.70;;;;;;5095357;28;19920;-67
2022/09/25 08:31:43;;;;;;;;;;;17.00;59.80;;;;;;5094565;28;20016;-67
2022/09/25 08:34:09;;;;;;;;;;;16.90;59.70;;;;;;5077018;28;20014;-67
2022/09/25 08:36:35;;;;;;;;;;;17.00;59.80;;;;;;5095339;28;19974;-67
2022/09/25 08:39:00;;;;;;;;;;;17.00;59.80;;;;;;5095131;28;19920;-67
2022/09/25 08:41:28;;;;;;;;;;;17.00;59.70;;;;;;5077339;28;19977;-68
2022/09/25 08:49:29;;;;;;;;;;;17.00;59.70;;;;;;5174271;27;19918;-65
2022/09/25 08:51:59;;;;;;;;;;;17.00;59.70;;;;;;5174832;27;19925;-66
2022/09/25 08:54:25;;;;;;;;;;;17.10;59.70;;;;;;5174613;27;19918;-65
2022/09/25 08:56:54;;;;;;;;;;;17.00;59.60;;;;;;5174526;27;19918;-66
2022/09/25 08:59:25;;;;;;;;;;;17.00;59.60;;;;;;5174601;27;19974;-65
2022/09/25 09:01:54;;;;;;;;;;;17.00;59.60;;;;;;5174158;27;19939;-66
2022/09/25 09:04:37;;;;;;;;;;;17.00;59.50;;;;;;5192906;27;20438;-66
2022/09/25 09:07:05;;;;;;;;;;;17.00;59.50;;;;;;5174276;27;19942;-65
2022/09/25 09:09:36;;;;;;;;;;;17.00;59.50;;;;;;5174039;27;19918;-65
2022/09/25 09:12:08;;;;;;;;;;;17.00;59.50;;;;;;5192685;27;19970;-65
2022/09/25 09:14:38;;;;;;;;;;;17.10;59.50;;;;;;5174368;27;19919;-65
2022/09/25 09:17:06;;;;;;;;;;;17.00;59.50;;;;;;5174234;27;19993;-65
2022/09/25 09:19:32;;;;;;;;;;;17.10;59.40;;;;;;5193057;27;19919;-65
2022/09/25 09:22:13;;;;;;;;;;;17.10;59.50;;;;;;5192887;27;19942;-65
2022/09/25 09:30:34;;;;;;;;;;;17.10;59.30;;;;;;5089863;28;19913;-65
2022/09/25 09:33:12;;;;;;;;;;;17.10;59.20;;;;;;5088897;28;19920;-65
2022/09/25 09:35:58;;;;;;;;;;;17.20;59.30;;;;;;5088775;28;19934;-66
2022/09/25 09:41:16;;;;;;;;;;;17.10;59.20;;;;;;5110345;27;19938;-65
2022/09/25 09:46:27;;;;;;;;;;;17.20;59.10;;;;;;5090024;28;19912;-65
2022/09/25 09:49:00;;;;;;;;;;;17.20;59.10;;;;;;5071697;28;20007;-65
2022/09/25 09:51:29;;;;;;;;;;;17.20;59.10;;;;;;5088949;28;19921;-66
2022/09/25 09:53:59;;;;;;;;;;;17.20;58.90;;;;;;5088438;28;20006;-65
2022/09/25 09:56:27;;;;;;;;;;;17.20;58.90;;;;;;5088493;28;19952;-65
2022/09/25 09:58:55;;;;;;;;;;;17.30;58.90;;;;;;5088676;28;20123;-65
2022/09/25 10:01:22;;;;;;;;;;;17.30;58.80;;;;;;5088664;28;20023;-65
2022/09/25 10:03:52;;;;;;;;;;;17.30;58.80;;;;;;5088570;28;19920;-66
2022/09/25 10:06:20;;;;;;;;;;;17.30;58.80;;;;;;5088571;28;20067;-66
2022/09/25 10:08:46;;;;;;;;;;;17.30;58.70;;;;;;5088271;28;19928;-66
2022/09/25 10:11:14;;;;;;;;;;;17.30;58.60;;;;;;5088186;28;19920;-65
2022/09/25 10:13:40;;;;;;;;;;;17.30;58.60;;;;;;5089563;28;20429;-66
2022/09/25 10:16:10;;;;;;;;;;;17.30;58.60;;;;;;5088059;28;19965;-66
2022/09/25 10:18:39;;;;;;;;;;;17.30;58.60;;;;;;5088656;28;20302;-66
2022/09/25 10:21:09;;;;;;;;;;;17.30;58.60;;;;;;5089655;28;19928;-66
2022/09/25 10:23:38;;;;;;;;;;;17.30;58.60;;;;;;5089238;28;20011;-66
2022/09/25 10:26:23;;;;;;;;;;;17.30;58.60;;;;;;5089010;28;19928;-66
2022/09/25 10:28:49;;;;;;;;;;;17.30;58.60;;;;;;5105009;28;19927;-66
2022/09/25 10:31:16;;;;;;;;;;;17.30;59.30;;;;;;5088959;28;20287;-66
2022/09/25 10:33:41;;;;;;;;;;;17.30;58.60;;;;;;5087804;28;19927;-66
2022/09/25 10:36:07;;;;;;;;;;;17.30;58.60;;;;;;5087976;28;19924;-66
2022/09/25 10:38:35;;;;;;;;;;;17.30;58.60;;;;;;5089080;28;19983;-66
2022/09/25 10:41:03;;;;;;;;;;;17.30;58.50;;;;;;5087642;28;19920;-66
2022/09/25 10:43:29;;;;;;;;;;;17.30;58.50;;;;;;5087555;28;19920;-66
2022/09/25 10:46:14;;;;;;;;;;;17.30;58.50;;;;;;5087187;28;19970;-66
2022/09/25 10:51:26;;;;;;;;;;;17.30;58.50;;;;;;5087389;28;19927;-66
2022/09/25 10:54:08;;;;;;;;;;;17.40;58.50;;;;;;5087473;28;19924;-66
2022/09/25 10:56:37;;;;;;;;;;;17.30;58.50;;;;;;5081457;28;19921;-66
2022/09/25 10:59:12;;;;;;;;;;;17.30;58.40;;;;;;5074064;28;19935;-66
2022/09/25 11:01:38;;;;;;;;;;;17.30;59.10;;;;;;5075377;28;19925;-66
2022/09/25 11:04:10;;;;;;;;;;;17.30;58.40;;;;;;5074923;28;19920;-66
2022/09/25 11:06:41;;;;;;;;;;;17.40;58.40;;;;;;5074891;28;19927;-65
2022/09/25 11:11:48;;;;;;;;;;;17.40;58.40;;;;;;5089966;28;20203;-66
2022/09/25 11:14:31;;;;;;;;;;;17.40;58.30;;;;;;5089878;28;19943;-66
2022/09/25 11:16:57;;;;;;;;;;;17.40;58.30;;;;;;5088646;28;20384;-66
2022/09/25 11:25:04;;;;;;;;;;;17.40;58.20;;;;;;5089936;28;19919;-66
2022/09/25 11:27:33;;;;;;;;;;;17.40;58.20;;;;;;5088545;28;19975;-66
2022/09/25 11:30:02;;;;;;;;;;;17.40;58.20;;;;;;5088858;28;19928;-66
2022/09/25 11:32:47;;;;;;;;;;;17.40;58.20;;;;;;5088431;28;19963;-66
2022/09/25 11:35:19;;;;;;;;;;;17.50;58.20;;;;;;5105485;28;19925;-65
2022/09/25 11:37:49;;;;;;;;;;;17.50;58.20;;;;;;5088347;28;19920;-66
2022/09/25 11:43:16;;;;;;;;;;;17.50;58.10;;;;;;5088187;28;19970;-66
2022/09/25 11:48:28;;;;;;;;;;;17.50;58.00;;;;;;5193390;27;19911;-66
2022/09/25 11:56:40;;;;;;;;;;;17.60;57.90;;;;;;5127522;27;1869236;-66
2022/09/25 11:59:26;;;;;;;;;;;17.50;57.80;;;;;;5174734;27;19918;-65
2022/09/25 12:01:56;;;;;;;;;;;17.50;57.90;;;;;;5174197;27;19922;-65
2022/09/25 12:10:13;;;;;;;;;;;17.50;57.90;;;;;;5089902;28;19917;-66
2022/09/25 12:12:48;;;;;;;;;;;17.50;57.90;;;;;;5089833;28;19924;-66
2022/09/25 12:15:19;;;;;;;;;;;17.50;57.90;;;;;;5089919;28;19920;-66
2022/09/25 12:17:51;;;;;;;;;;;17.50;57.90;;;;;;5088882;28;19931;-66
2022/09/25 12:23:17;;;;;;;;;;;17.50;58.00;;;;;;5110288;27;19938;-66
2022/09/25 12:28:45;;;;;;;;;;;17.50;58.10;;;;;;5130704;27;19911;-66
2022/09/25 12:31:22;;;;;;;;;;;17.50;58.10;;;;;;5125701;28;20014;-66
2022/09/25 12:36:35;;;;;;;;;;;17.40;58.20;;;;;;5127823;27;1860034;-66
2022/09/25 12:41:45;;;;;;;;;;;17.40;58.20;;;;;;5110408;27;20360;-66
2022/09/25 12:44:30;;;;;;;;;;;17.50;58.30;;;;;;5109138;28;20292;-66
2022/09/25 12:47:01;;;;;;;;;;;17.40;58.20;;;;;;5108758;28;19984;-66
2022/09/25 12:49:33;;;;;;;;;;;17.40;58.30;;;;;;5108796;28;19920;-66
2022/09/25 12:52:04;;;;;;;;;;;17.40;58.30;;;;;;5110043;28;20368;-66
2022/09/25 12:54:44;;;;;;;;;;;17.40;58.30;;;;;;5108702;28;19920;-66
2022/09/25 12:57:13;;;;;;;;;;;17.40;58.30;;;;;;5108751;28;19920;-66
2022/09/25 12:59:46;;;;;;;;;;;17.40;58.30;;;;;;5109827;28;19924;-66
2022/09/25 13:02:30;;;;;;;;;;;17.40;58.40;;;;;;5091633;28;20384;-66
2022/09/25 13:05:01;;;;;;;;;;;17.40;58.40;;;;;;5110204;28;20451;-66
2022/09/25 13:13:08;;;;;;;;;;;17.40;58.50;;;;;;5110318;27;19913;-66
2022/09/25 13:15:35;;;;;;;;;;;17.40;58.50;;;;;;5109160;28;19920;-66
2022/09/25 13:18:02;;;;;;;;;;;17.40;58.60;;;;;;5092078;28;20464;-66
2022/09/25 13:23:13;;;;;;;;;;;17.40;58.60;;;;;;5151481;27;19918;-66
2022/09/25 13:25:40;;;;;;;;;;;17.50;58.70;;;;;;5133211;27;19927;-66
2022/09/25 13:28:07;;;;;;;;;;;17.40;58.70;;;;;;5132829;27;19919;-66
2022/09/25 13:30:33;;;;;;;;;;;17.40;58.70;;;;;;5133070;27;19942;-66
2022/09/25 13:33:01;;;;;;;;;;;17.40;58.70;;;;;;5129095;28;19920;-66
2022/09/25 13:35:27;;;;;;;;;;;17.40;58.70;;;;;;5129279;28;20364;-66
2022/09/25 13:37:54;;;;;;;;;;;17.40;58.70;;;;;;5129071;28;19926;-66
2022/09/25 13:40:53;;;;;;;;;;;17.40;58.70;;;;;;5129163;28;19931;-66
2022/09/25 13:43:23;;;;;;;;;;;17.40;58.70;;;;;;5130325;28;19931;-66
2022/09/25 13:46:09;;;;;;;;;;;17.40;58.80;;;;;;5129065;28;19919;-66
2022/09/25 13:48:36;;;;;;;;;;;17.40;58.80;;;;;;5130192;27;19963;-67
2022/09/25 13:56:47;;;;;;;;;;;17.40;58.80;;;;;;5089881;28;19912;-66
2022/09/25 14:01:55;;;;;;;;;;;17.40;58.90;;;;;;5110267;27;19918;-66
2022/09/25 14:04:24;;;;;;;;;;;17.40;58.90;;;;;;5075317;28;19926;-66
2022/09/25 14:06:53;;;;;;;;;;;17.40;58.90;;;;;;5091910;28;19920;-66
2022/09/25 14:09:22;;;;;;;;;;;17.40;58.90;;;;;;5091864;28;20379;-66
2022/09/25 14:11:53;;;;;;;;;;;17.40;58.90;;;;;;5092115;28;20391;-66
2022/09/25 14:14:26;;;;;;;;;;;17.40;58.90;;;;;;5091683;28;19920;-66
2022/09/25 14:16:54;;;;;;;;;;;17.40;58.90;;;;;;5110049;28;20307;-66
2022/09/25 14:19:23;;;;;;;;;;;17.40;59.00;;;;;;5109949;28;19924;-65
2022/09/25 14:21:50;;;;;;;;;;;17.50;59.00;;;;;;5091976;28;20326;-66
2022/09/25 14:24:19;;;;;;;;;;;17.40;59.00;;;;;;5091414;28;19975;-66
2022/09/25 14:26:45;;;;;;;;;;;17.40;59.00;;;;;;5091939;28;19920;-66
2022/09/25 14:29:21;;;;;;;;;;;17.40;59.00;;;;;;5109834;28;19984;-66
2022/09/25 14:34:36;;;;;;;;;;;17.40;59.00;;;;;;5110179;27;19912;-65
2022/09/25 14:39:50;;;;;;;;;;;17.40;59.00;;;;;;5089849;28;19913;-66
2022/09/25 14:45:15;;;;;;;;;;;17.40;59.00;;;;;;5089859;28;19913;-66
2022/09/25 14:47:43;;;;;;;;;;;17.40;59.00;;;;;;5090129;28;19998;-66
2022/09/25 14:50:16;;;;;;;;;;;17.40;59.10;;;;;;5088772;28;19920;-66
2022/09/25 14:52:42;;;;;;;;;;;17.40;59.10;;;;;;5088470;28;19965;-65
2022/09/25 14:55:13;;;;;;;;;;;17.40;59.10;;;;;;5088729;28;19968;-66
2022/09/25 14:57:39;;;;;;;;;;;17.40;59.10;;;;;;5088653;28;20344;-65
2022/09/25 15:00:06;;;;;;;;;;;17.40;59.10;;;;;;5088269;28;19920;-65
2022/09/25 15:02:35;;;;;;;;;;;17.40;59.10;;;;;;5088515;28;20006;-66
2022/09/25 15:05:21;;;;;;;;;;;17.40;59.10;;;;;;5089680;28;19977;-65
2022/09/25 15:07:47;;;;;;;;;;;17.40;59.20;;;;;;5088413;28;19920;-66
2022/09/25 15:10:32;;;;;;;;;;;17.40;59.10;;;;;;5088072;28;19927;-66
2022/09/25 15:18:42;;;;;;;;;;;17.40;59.10;;;;;;5108522;28;20003;-66
2022/09/25 15:21:25;;;;;;;;;;;17.40;59.20;;;;;;5109015;28;20302;-65
2022/09/25 15:23:52;;;;;;;;;;;17.40;59.20;;;;;;5109226;28;19927;-66
2022/09/25 15:26:18;;;;;;;;;;;17.40;59.20;;;;;;5108787;28;19920;-66
2022/09/25 15:28:44;;;;;;;;;;;17.40;59.10;;;;;;5109138;28;19924;-66
2022/09/25 15:31:10;;;;;;;;;;;17.50;59.10;;;;;;5108972;28;19926;-66
2022/09/25 15:33:36;;;;;;;;;;;17.50;59.00;;;;;;5109904;28;20015;-66
2022/09/25 15:36:07;;;;;;;;;;;17.50;59.00;;;;;;5108666;28;19927;-66
2022/09/25 15:38:34;;;;;;;;;;;17.50;59.00;;;;;;5143020;27;20227;-66
2022/09/25 15:41:00;;;;;;;;;;;17.50;58.90;;;;;;5143181;27;19955;-66
2022/09/25 15:43:25;;;;;;;;;;;17.50;58.90;;;;;;5108608;28;20457;-66
2022/09/25 15:49:03;;;;;;;;;;;17.50;58.80;;;;;;5089805;28;19917;-65
2022/09/25 15:51:29;;;;;;;;;;;17.70;58.80;;;;;;5105446;28;19970;-66
2022/09/25 15:53:56;;;;;;;;;;;17.50;58.70;;;;;;5088886;28;20374;-66
2022/09/25 15:56:25;;;;;;;;;;;17.60;58.70;;;;;;5088773;28;19966;-66
2022/09/25 15:58:52;;;;;;;;;;;17.60;58.70;;;;;;5088596;28;19920;-66
2022/09/25 16:06:53;;;;;;;;;;;17.60;58.70;;;;;;5088332;28;19925;-65
2022/09/25 16:09:20;;;;;;;;;;;17.60;58.70;;;;;;5088244;28;19927;-65
2022/09/25 16:11:47;;;;;;;;;;;17.60;58.70;;;;;;5088490;28;19920;-66
2022/09/25 16:14:19;;;;;;;;;;;17.60;58.60;;;;;;5089821;28;19927;-66
2022/09/25 16:16:45;;;;;;;;;;;17.60;58.70;;;;;;5089435;28;20333;-66
2022/09/25 16:19:31;;;;;;;;;;;17.60;58.70;;;;;;5088038;28;19920;-66
2022/09/25 16:21:57;;;;;;;;;;;17.50;58.60;;;;;;5088113;28;20623;-65